^^
Your Local Weather - Clay, NY Station Historical Data
Daily Summary for January 23, 2018 Units:  Both    English   Metric
« Previous Day
Next Day »
Daily Weekly Monthly Yearly Custom
  High: Low: Average:
Temperature: 52.5 °F /  11.4 °C 32.4 °F /  0.2 °C 40.1 °F /  4.5 °C
Dew Point: 46.8 °F /  8.2 °C 29.2 °F /  -1.6 °C 36.2 °F /  2.3 °C
Humidity: 94% 72% 86%
Wind Speed: 9.0mph /  14.5km/h - 2.8mph /  4.5km/h
Wind Gust: 21.0mph /  33.8km/h - -
Wind- - South
Pressure: 29.75 in /  1007.3 hPa 29.43 in /  996.5 hPa -
Precipitation: 0.12 in /  3.05 mm    
Historical Graphs
 
 
Tabular Data for January 23, 2018
Time Temperature Dew Point Pressure Wind Wind Speed Wind Gust Humidity Rainfall Rate (Hourly) solar
00:02 37.1 °F /  2.8 °C 35.3 °F /  1.8 °C 29.75in /  1007.3hPa ENE 2.0mph /  3.2km/h 3.0mph /  4.8km/h 93% 0.00in /  0mm 0 W/m2
00:14 38.0 °F /  3.3 °C 36.2 °F /  2.3 °C 29.74in /  1007hPa NNE 2.0mph /  3.2km/h 3.0mph /  4.8km/h 93% 0.00in /  0mm 0 W/m2
00:20 36.8 °F /  2.7 °C 34.7 °F /  1.5 °C 29.74in /  1007hPa NNE 2.0mph /  3.2km/h 2.0mph /  3.2km/h 92% 0.00in /  0mm 0 W/m2
00:32 36.6 °F /  2.6 °C 34.5 °F /  1.4 °C 29.73in /  1006.7hPa ENE 2.0mph /  3.2km/h 3.0mph /  4.8km/h 92% 0.00in /  0mm 0 W/m2
00:38 37.0 °F /  2.8 °C 34.9 °F /  1.6 °C 29.73in /  1006.7hPa NE 2.0mph /  3.2km/h 3.0mph /  4.8km/h 92% 0.00in /  0mm 0 W/m2
00:44 36.9 °F /  2.7 °C 34.8 °F /  1.6 °C 29.73in /  1006.7hPa NE 2.0mph /  3.2km/h 4.0mph /  6.4km/h 92% 0.00in /  0mm 0 W/m2
00:50 36.8 °F /  2.7 °C 34.7 °F /  1.5 °C 29.72in /  1006.3hPa NE 1.0mph /  1.6km/h 2.0mph /  3.2km/h 92% 0.00in /  0mm 0 W/m2
01:04 37.5 °F /  3.1 °C 35.7 °F /  2.1 °C 29.72in /  1006.3hPa NE 1.0mph /  1.6km/h 2.0mph /  3.2km/h 93% 0.00in /  0mm 0 W/m2
01:10 37.1 °F /  2.8 °C 35.3 °F /  1.8 °C 29.72in /  1006.3hPa NE 2.0mph /  3.2km/h 2.0mph /  3.2km/h 93% 0.00in /  0mm 0 W/m2
01:16 38.0 °F /  3.3 °C 36.2 °F /  2.3 °C 29.71in /  1006hPa NE 1.0mph /  1.6km/h 4.0mph /  6.4km/h 93% 0.00in /  0mm 0 W/m2
01:22 38.2 °F /  3.4 °C 36.4 °F /  2.4 °C 29.72in /  1006.3hPa NE 1.0mph /  1.6km/h 1.0mph /  1.6km/h 93% 0.00in /  0mm 0 W/m2
01:28 37.9 °F /  3.3 °C 36.1 °F /  2.3 °C 29.72in /  1006.3hPa Calm   1.0mph /  1.6km/h 93% 0.00in /  0mm 0 W/m2
01:34 38.0 °F /  3.3 °C 36.2 °F /  2.3 °C 29.72in /  1006.3hPa North 1.0mph /  1.6km/h 2.0mph /  3.2km/h 93% 0.00in /  0mm 0 W/m2
01:40 37.9 °F /  3.3 °C 36.1 °F /  2.3 °C 29.71in /  1006hPa NE 2.0mph /  3.2km/h 2.0mph /  3.2km/h 93% 0.00in /  0mm 0 W/m2
01:46 38.1 °F /  3.4 °C 36.3 °F /  2.4 °C 29.71in /  1006hPa ENE 1.0mph /  1.6km/h 3.0mph /  4.8km/h 93% 0.00in /  0mm 0 W/m2
01:52 38.5 °F /  3.6 °C 36.7 °F /  2.6 °C 29.71in /  1006hPa SE 1.0mph /  1.6km/h 2.0mph /  3.2km/h 93% 0.00in /  0mm 0 W/m2
02:04 39.0 °F /  3.9 °C 37.1 °F /  2.8 °C 29.71in /  1006hPa SE 1.0mph /  1.6km/h 5.0mph /  8km/h 93% 0.00in /  0mm 0 W/m2
02:16 41.6 °F /  5.3 °C 39.7 °F /  4.3 °C 29.70in /  1005.6hPa ESE 3.0mph /  4.8km/h 5.0mph /  8km/h 93% 0.00in /  0mm 0 W/m2
02:22 40.8 °F /  4.9 °C 38.7 °F /  3.7 °C 29.70in /  1005.6hPa ESE 1.0mph /  1.6km/h 2.0mph /  3.2km/h 92% 0.00in /  0mm 0 W/m2
02:28 41.2 °F /  5.1 °C 38.8 °F /  3.8 °C 29.70in /  1005.6hPa SE 1.0mph /  1.6km/h 5.0mph /  8km/h 91% 0.00in /  0mm 0 W/m2
02:34 44.4 °F /  6.9 °C 41.9 °F /  5.5 °C 29.70in /  1005.6hPa ESE 4.0mph /  6.4km/h 4.0mph /  6.4km/h 91% 0.00in /  0mm 0 W/m2
02:40 45.3 °F /  7.4 °C 42.0 °F /  5.6 °C 29.69in /  1005.3hPa South 5.0mph /  8km/h 6.0mph /  9.7km/h 88% 0.00in /  0mm 0 W/m2
02:46 45.1 °F /  7.3 °C 41.2 °F /  5.1 °C 29.69in /  1005.3hPa SSE 4.0mph /  6.4km/h 6.0mph /  9.7km/h 86% 0.00in /  0mm 0 W/m2
02:52 46.5 °F /  8.1 °C 41.9 °F /  5.5 °C 29.69in /  1005.3hPa SE 6.0mph /  9.7km/h 8.0mph /  12.9km/h 84% 0.00in /  0mm 0 W/m2
02:58 46.3 °F /  7.9 °C 41.4 °F /  5.2 °C 29.69in /  1005.3hPa SE 5.0mph /  8km/h 8.0mph /  12.9km/h 83% 0.00in /  0mm 0 W/m2
03:04 46.3 °F /  7.9 °C 41.4 °F /  5.2 °C 29.68in /  1005hPa ESE 3.0mph /  4.8km/h 5.0mph /  8km/h 83% 0.00in /  0mm 0 W/m2
03:16 42.7 °F /  5.9 °C 37.9 °F /  3.3 °C 29.67in /  1004.6hPa East 2.0mph /  3.2km/h 3.0mph /  4.8km/h 83% 0.00in /  0mm 0 W/m2
03:22 41.0 °F /  5 °C 36.8 °F /  2.7 °C 29.66in /  1004.3hPa East 2.0mph /  3.2km/h 3.0mph /  4.8km/h 85% 0.00in /  0mm 0 W/m2
03:28 40.0 °F /  4.4 °C 36.2 °F /  2.3 °C 29.65in /  1003.9hPa East 2.0mph /  3.2km/h 3.0mph /  4.8km/h 86% 0.00in /  0mm 0 W/m2
03:34 39.9 °F /  4.4 °C 36.6 °F /  2.6 °C 29.66in /  1004.3hPa South 1.0mph /  1.6km/h 3.0mph /  4.8km/h 88% 0.00in /  0mm 0 W/m2
03:40 39.9 °F /  4.4 °C 36.9 °F /  2.7 °C 29.66in /  1004.3hPa NE 2.0mph /  3.2km/h 2.0mph /  3.2km/h 89% 0.00in /  0mm 0 W/m2
03:46 39.0 °F /  3.9 °C 36.0 °F /  2.2 °C 29.66in /  1004.3hPa NE 1.0mph /  1.6km/h 3.0mph /  4.8km/h 89% 0.00in /  0mm 0 W/m2
03:52 39.0 °F /  3.9 °C 36.0 °F /  2.2 °C 29.66in /  1004.3hPa ENE 1.0mph /  1.6km/h 4.0mph /  6.4km/h 89% 0.00in /  0mm 0 W/m2
03:58 39.0 °F /  3.9 °C 36.3 °F /  2.4 °C 29.66in /  1004.3hPa ENE 2.0mph /  3.2km/h 4.0mph /  6.4km/h 90% 0.00in /  0mm 0 W/m2
04:04 39.3 °F /  4.1 °C 36.6 °F /  2.6 °C 29.65in /  1003.9hPa ENE 1.0mph /  1.6km/h 3.0mph /  4.8km/h 90% 0.00in /  0mm 0 W/m2
04:10 39.3 °F /  4.1 °C 36.9 °F /  2.7 °C 29.65in /  1003.9hPa ENE 1.0mph /  1.6km/h 1.0mph /  1.6km/h 91% 0.00in /  0mm 0 W/m2
04:16 39.9 °F /  4.4 °C 37.5 °F /  3.1 °C 29.64in /  1003.6hPa ENE 1.0mph /  1.6km/h 2.0mph /  3.2km/h 91% 0.00in /  0mm 0 W/m2
04:22 39.6 °F /  4.2 °C 37.2 °F /  2.9 °C 29.63in /  1003.3hPa ENE 2.0mph /  3.2km/h 4.0mph /  6.4km/h 91% 0.00in /  0mm 0 W/m2
04:28 40.4 °F /  4.7 °C 38.3 °F /  3.5 °C 29.63in /  1003.3hPa NE 2.0mph /  3.2km/h 4.0mph /  6.4km/h 92% 0.00in /  0mm 0 W/m2
04:34 40.7 °F /  4.8 °C 38.6 °F /  3.7 °C 29.62in /  1002.9hPa NE 1.0mph /  1.6km/h 3.0mph /  4.8km/h 92% 0.00in /  0mm 0 W/m2
04:40 40.7 °F /  4.8 °C 38.6 °F /  3.7 °C 29.60in /  1002.3hPa NE 1.0mph /  1.6km/h 3.0mph /  4.8km/h 92% 0.00in /  0mm 0 W/m2
04:46 41.2 °F /  5.1 °C 39.1 °F /  3.9 °C 29.60in /  1002.3hPa SE 3.0mph /  4.8km/h 4.0mph /  6.4km/h 92% 0.00in /  0mm 0 W/m2
04:58 42.3 °F /  5.7 °C 40.1 °F /  4.5 °C 29.59in /  1001.9hPa SE 3.0mph /  4.8km/h 5.0mph /  8km/h 92% 0.00in /  0mm 0 W/m2
05:04 42.9 °F /  6.1 °C 40.5 °F /  4.7 °C 29.58in /  1001.6hPa East 4.0mph /  6.4km/h 5.0mph /  8km/h 91% 0.00in /  0mm 0 W/m2
05:10 42.4 °F /  5.8 °C 39.7 °F /  4.3 °C 29.58in /  1001.6hPa SE 3.0mph /  4.8km/h 3.0mph /  4.8km/h 90% 0.00in /  0mm 0 W/m2
05:16 42.0 °F /  5.6 °C 39.0 °F /  3.9 °C 29.57in /  1001.2hPa East 2.0mph /  3.2km/h 3.0mph /  4.8km/h 89% 0.00in /  0mm 0 W/m2
05:28 40.5 °F /  4.7 °C 37.5 °F /  3.1 °C 29.58in /  1001.6hPa ENE 3.0mph /  4.8km/h 6.0mph /  9.7km/h 89% 0.00in /  0mm 0 W/m2
05:34 39.5 °F /  4.2 °C 36.5 °F /  2.5 °C 29.58in /  1001.6hPa ENE 4.0mph /  6.4km/h 7.0mph /  11.3km/h 89% 0.00in /  0mm 0 W/m2
05:46 38.7 °F /  3.7 °C 36.0 °F /  2.2 °C 29.58in /  1001.6hPa East 2.0mph /  3.2km/h 5.0mph /  8km/h 90% 0.00in /  0mm 0 W/m2
05:52 38.0 °F /  3.3 °C 35.3 °F /  1.8 °C 29.59in /  1001.9hPa East 2.0mph /  3.2km/h 3.0mph /  4.8km/h 90% 0.00in /  0mm 0 W/m2
05:58 37.8 °F /  3.2 °C 35.1 °F /  1.7 °C 29.58in /  1001.6hPa ENE 2.0mph /  3.2km/h 4.0mph /  6.4km/h 90% 0.00in /  0mm 0 W/m2
06:04 37.6 °F /  3.1 °C 34.9 °F /  1.6 °C 29.58in /  1001.6hPa ENE 2.0mph /  3.2km/h 2.0mph /  3.2km/h 90% 0.00in /  0mm 0 W/m2
06:10 38.1 °F /  3.4 °C 35.7 °F /  2.1 °C 29.57in /  1001.2hPa ESE 1.0mph /  1.6km/h 1.0mph /  1.6km/h 91% 0.00in /  0mm 0 W/m2
06:16 38.7 °F /  3.7 °C 36.3 °F /  2.4 °C 29.57in /  1001.2hPa ESE 1.0mph /  1.6km/h 1.0mph /  1.6km/h 91% 0.00in /  0mm 0 W/m2
06:22 39.5 °F /  4.2 °C 37.1 °F /  2.8 °C 29.58in /  1001.6hPa East 1.0mph /  1.6km/h 2.0mph /  3.2km/h 91% 0.00in /  0mm 0 W/m2
06:28 40.0 °F /  4.4 °C 37.9 °F /  3.3 °C 29.58in /  1001.6hPa ENE 1.0mph /  1.6km/h 3.0mph /  4.8km/h 92% 0.00in /  0mm 0 W/m2
06:34 40.9 °F /  4.9 °C 38.8 °F /  3.8 °C 29.60in /  1002.3hPa NE 1.0mph /  1.6km/h 3.0mph /  4.8km/h 92% 0.00in /  0mm 0 W/m2
06:40 41.5 °F /  5.3 °C 39.3 °F /  4.1 °C 29.60in /  1002.3hPa ENE 1.0mph /  1.6km/h 1.0mph /  1.6km/h 92% 0.00in /  0mm 0 W/m2
06:46 41.7 °F /  5.4 °C 39.3 °F /  4.1 °C 29.60in /  1002.3hPa SE 1.0mph /  1.6km/h 1.0mph /  1.6km/h 91% 0.00in /  0mm 0 W/m2
06:52 41.4 °F /  5.2 °C 39.0 °F /  3.9 °C 29.60in /  1002.3hPa West 1.0mph /  1.6km/h 2.0mph /  3.2km/h 91% 0.00in /  0mm 0 W/m2
06:58 41.8 °F /  5.4 °C 39.4 °F /  4.1 °C 29.61in /  1002.6hPa West 1.0mph /  1.6km/h 2.0mph /  3.2km/h 91% 0.00in /  0mm 0 W/m2
07:04 41.4 °F /  5.2 °C 38.7 °F /  3.7 °C 29.61in /  1002.6hPa NW 1.0mph /  1.6km/h 6.0mph /  9.7km/h 90% 0.00in /  0mm 0 W/m2
07:10 39.9 °F /  4.4 °C 36.9 °F /  2.7 °C 29.61in /  1002.6hPa NNW 2.0mph /  3.2km/h 2.0mph /  3.2km/h 89% 0.00in /  0mm 0 W/m2
07:16 39.2 °F /  4 °C 36.2 °F /  2.3 °C 29.61in /  1002.6hPa NNW 2.0mph /  3.2km/h 2.0mph /  3.2km/h 89% 0.00in /  0mm 0 W/m2
07:22 38.7 °F /  3.7 °C 35.7 °F /  2.1 °C 29.61in /  1002.6hPa NNW 2.0mph /  3.2km/h 2.0mph /  3.2km/h 89% 0.00in /  0mm 0 W/m2
07:28 38.4 °F /  3.6 °C 35.7 °F /  2.1 °C 29.61in /  1002.6hPa NNW 1.0mph /  1.6km/h 2.0mph /  3.2km/h 90% 0.00in /  0mm 0 W/m2
07:34 38.2 °F /  3.4 °C 35.5 °F /  1.9 °C 29.61in /  1002.6hPa Calm   1.0mph /  1.6km/h 90% 0.00in /  0mm 0 W/m2
07:40 38.1 °F /  3.4 °C 35.4 °F /  1.9 °C 29.61in /  1002.6hPa Calm     90% 0.00in /  0mm 0 W/m2
07:46 37.5 °F /  3.1 °C 34.8 °F /  1.6 °C 29.60in /  1002.3hPa Calm   1.0mph /  1.6km/h 90% 0.00in /  0mm 0 W/m2
07:52 37.1 °F /  2.8 °C 34.7 °F /  1.5 °C 29.59in /  1001.9hPa Calm   1.0mph /  1.6km/h 91% 0.00in /  0mm 0 W/m2
07:58 37.1 °F /  2.8 °C 34.7 °F /  1.5 °C 29.59in /  1001.9hPa Calm   2.0mph /  3.2km/h 91% 0.00in /  0mm 5 W/m2
08:04 37.4 °F /  3 °C 35.0 °F /  1.7 °C 29.59in /  1001.9hPa NNW 1.0mph /  1.6km/h 2.0mph /  3.2km/h 91% 0.00in /  0mm 5 W/m2
08:10 37.5 °F /  3.1 °C 35.4 °F /  1.9 °C 29.58in /  1001.6hPa NNW 1.0mph /  1.6km/h 1.0mph /  1.6km/h 92% 0.00in /  0mm 7 W/m2
08:16 37.5 °F /  3.1 °C 35.4 °F /  1.9 °C 29.59in /  1001.9hPa NNW 1.0mph /  1.6km/h 1.0mph /  1.6km/h 92% 0.00in /  0mm 5 W/m2
08:22 37.4 °F /  3 °C 35.3 °F /  1.8 °C 29.56in /  1000.9hPa NNW 1.0mph /  1.6km/h 2.0mph /  3.2km/h 92% 0.00in /  0mm 12 W/m2
08:28 37.5 °F /  3.1 °C 35.4 °F /  1.9 °C 29.56in /  1000.9hPa NNW 1.0mph /  1.6km/h 2.0mph /  3.2km/h 92% 0.00in /  0mm 19 W/m2
08:34 37.4 °F /  3 °C 35.3 °F /  1.8 °C 29.55in /  1000.6hPa NNW 1.0mph /  1.6km/h 1.0mph /  1.6km/h 92% 0.00in /  0mm 16 W/m2
08:40 37.3 °F /  2.9 °C 35.2 °F /  1.8 °C 29.55in /  1000.6hPa Calm   1.0mph /  1.6km/h 92% 0.00in /  0mm 12 W/m2
08:52 37.6 °F /  3.1 °C 35.5 °F /  1.9 °C 29.55in /  1000.6hPa Calm   1.0mph /  1.6km/h 92% 0.00in /  0mm 5 W/m2
08:58 38.1 °F /  3.4 °C 36.0 °F /  2.2 °C 29.55in /  1000.6hPa ESE 1.0mph /  1.6km/h 2.0mph /  3.2km/h 92% 0.00in /  0mm 21 W/m2
09:04 38.8 °F /  3.8 °C 36.9 °F /  2.7 °C 29.54in /  1000.2hPa ESE 1.0mph /  1.6km/h 3.0mph /  4.8km/h 93% 0.00in /  0mm 28 W/m2
09:10 39.4 °F /  4.1 °C 37.5 °F /  3.1 °C 29.52in /  999.5hPa East 2.0mph /  3.2km/h 5.0mph /  8km/h 93% 0.00in /  0mm 26 W/m2
09:16 39.8 °F /  4.3 °C 37.9 °F /  3.3 °C 29.53in /  999.9hPa East 4.0mph /  6.4km/h 6.0mph /  9.7km/h 93% 0.00in /  0mm 25 W/m2
09:22 39.9 °F /  4.4 °C 38.0 °F /  3.3 °C 29.52in /  999.5hPa ENE 3.0mph /  4.8km/h 3.0mph /  4.8km/h 93% 0.00in /  0mm 23 W/m2
09:34 40.2 °F /  4.6 °C 38.3 °F /  3.5 °C 29.52in /  999.5hPa ENE 2.0mph /  3.2km/h 3.0mph /  4.8km/h 93% 0.00in /  0mm 46 W/m2
09:40 40.0 °F /  4.4 °C 37.9 °F /  3.3 °C 29.52in /  999.5hPa ENE 2.0mph /  3.2km/h 2.0mph /  3.2km/h 92% 0.00in /  0mm 39 W/m2
09:46 40.0 °F /  4.4 °C 37.9 °F /  3.3 °C 29.52in /  999.5hPa ENE 1.0mph /  1.6km/h 2.0mph /  3.2km/h 92% 0.00in /  0mm 65 W/m2
09:52 40.2 °F /  4.6 °C 38.1 °F /  3.4 °C 29.53in /  999.9hPa ENE 1.0mph /  1.6km/h 3.0mph /  4.8km/h 92% 0.00in /  0mm 67 W/m2
10:04 40.9 °F /  4.9 °C 38.8 °F /  3.8 °C 29.53in /  999.9hPa ENE 1.0mph /  1.6km/h 1.0mph /  1.6km/h 92% 0.00in /  0mm 105 W/m2
10:16 41.0 °F /  5 °C 38.9 °F /  3.8 °C 29.53in /  999.9hPa Calm   2.0mph /  3.2km/h 92% 0.00in /  0mm 120 W/m2
10:18 41.1 °F /  5.1 °C 39.0 °F /  3.9 °C 29.53in /  999.9hPa Calm   2.0mph /  3.2km/h 92% 0.00in /  0mm 111 W/m2
10:24 41.3 °F /  5.2 °C 39.2 °F /  4 °C 29.55in /  1000.6hPa Calm   1.0mph /  1.6km/h 92% 0.00in /  0mm 65 W/m2
10:42 39.8 °F /  4.3 °C 37.4 °F /  3 °C 29.52in /  999.5hPa North 2.0mph /  3.2km/h 2.0mph /  3.2km/h 91% 0.00in /  0mm 56 W/m2
10:48 39.5 °F /  4.2 °C 37.1 °F /  2.8 °C 29.51in /  999.2hPa ENE 2.0mph /  3.2km/h 3.0mph /  4.8km/h 91% 0.00in /  0mm 44 W/m2
10:54 39.5 °F /  4.2 °C 37.4 °F /  3 °C 29.52in /  999.5hPa East 2.0mph /  3.2km/h 2.0mph /  3.2km/h 92% 0.00in /  0mm 58 W/m2
11:06 39.0 °F /  3.9 °C 36.9 °F /  2.7 °C 29.53in /  999.9hPa Calm   1.0mph /  1.6km/h 92% 0.00in /  0mm 18 W/m2
11:12 39.3 °F /  4.1 °C 37.2 °F /  2.9 °C 29.53in /  999.9hPa Calm   1.0mph /  1.6km/h 92% 0.00in /  0mm 16 W/m2
11:18 39.6 °F /  4.2 °C 37.5 °F /  3.1 °C 29.53in /  999.9hPa Calm   1.0mph /  1.6km/h 92% 0.00in /  0mm 26 W/m2
11:24 39.8 °F /  4.3 °C 37.7 °F /  3.2 °C 29.52in /  999.5hPa Calm   2.0mph /  3.2km/h 92% 0.00in /  0mm 44 W/m2
11:30 38.7 °F /  3.7 °C 36.6 °F /  2.6 °C 29.50in /  998.9hPa East 1.0mph /  1.6km/h 2.0mph /  3.2km/h 92% 0.00in /  0mm 47 W/m2
11:36 39.0 °F /  3.9 °C 36.9 °F /  2.7 °C 29.50in /  998.9hPa East 2.0mph /  3.2km/h 2.0mph /  3.2km/h 92% 0.00in /  0mm 72 W/m2
11:42 39.4 °F /  4.1 °C 37.5 °F /  3.1 °C 29.50in /  998.9hPa ENE 1.0mph /  1.6km/h 1.0mph /  1.6km/h 93% 0.00in /  0mm 37 W/m2
11:48 39.7 °F /  4.3 °C 37.8 °F /  3.2 °C 29.51in /  999.2hPa Calm   1.0mph /  1.6km/h 93% 0.00in /  0mm 39 W/m2
11:54 39.9 °F /  4.4 °C 38.0 °F /  3.3 °C 29.50in /  998.9hPa Calm   1.0mph /  1.6km/h 93% 0.00in /  0mm 26 W/m2
12:00 39.1 °F /  3.9 °C 37.2 °F /  2.9 °C 29.49in /  998.5hPa East 1.0mph /  1.6km/h 1.0mph /  1.6km/h 93% 0.00in /  0mm 23 W/m2
12:14 39.6 °F /  4.2 °C 37.7 °F /  3.2 °C 29.48in /  998.2hPa Calm     93% 0.00in /  0mm 47 W/m2
12:20 39.6 °F /  4.2 °C 37.7 °F /  3.2 °C 29.47in /  997.9hPa Calm     93% 0.00in /  0mm 105 W/m2
12:26 40.0 °F /  4.4 °C 38.1 °F /  3.4 °C 29.47in /  997.9hPa Calm   1.0mph /  1.6km/h 93% 0.00in /  0mm 301 W/m2
12:32 40.9 °F /  4.9 °C 39.0 °F /  3.9 °C 29.47in /  997.9hPa Calm     93% 0.00in /  0mm 202 W/m2
12:44 43.8 °F /  6.6 °C 42.2 °F /  5.7 °C 29.47in /  997.9hPa Calm   1.0mph /  1.6km/h 94% 0.00in /  0mm 445 W/m2
12:50 45.4 °F /  7.4 °C 43.8 °F /  6.6 °C 29.46in /  997.5hPa Calm     94% 0.00in /  0mm 420 W/m2
12:56 46.5 °F /  8.1 °C 44.6 °F /  7 °C 29.46in /  997.5hPa Calm     93% 0.00in /  0mm 461 W/m2
13:02 49.0 °F /  9.4 °C 46.8 °F /  8.2 °C 29.45in /  997.2hPa South 1.0mph /  1.6km/h 4.0mph /  6.4km/h 92% 0.00in /  0mm 508 W/m2
13:08 50.6 °F /  10.3 °C 46.3 °F /  7.9 °C 29.45in /  997.2hPa SSW 3.0mph /  4.8km/h 5.0mph /  8km/h 85% 0.00in /  0mm 568 W/m2
13:14 50.8 °F /  10.4 °C 45.2 °F /  7.3 °C 29.44in /  996.8hPa SSW 3.0mph /  4.8km/h 6.0mph /  9.7km/h 81% 0.00in /  0mm 135 W/m2
13:20 50.6 °F /  10.3 °C 44.3 °F /  6.8 °C 29.44in /  996.8hPa SSW 3.0mph /  4.8km/h 3.0mph /  4.8km/h 79% 0.00in /  0mm 130 W/m2
13:26 50.4 °F /  10.2 °C 44.1 °F /  6.7 °C 29.44in /  996.8hPa SSW 4.0mph /  6.4km/h 4.0mph /  6.4km/h 79% 0.00in /  0mm 248 W/m2
13:32 51.5 °F /  10.8 °C 44.5 °F /  6.9 °C 29.44in /  996.8hPa SSW 4.0mph /  6.4km/h 6.0mph /  9.7km/h 77% 0.00in /  0mm 452 W/m2
13:44 52.5 °F /  11.4 °C 44.1 °F /  6.7 °C 29.43in /  996.5hPa South 5.0mph /  8km/h 6.0mph /  9.7km/h 73% 0.00in /  0mm 480 W/m2
13:56 52.3 °F /  11.3 °C 43.5 °F /  6.4 °C 29.43in /  996.5hPa SW 5.0mph /  8km/h 8.0mph /  12.9km/h 72% 0.00in /  0mm 149 W/m2
14:02 51.9 °F /  11.1 °C 43.2 °F /  6.2 °C 29.43in /  996.5hPa South 4.0mph /  6.4km/h 7.0mph /  11.3km/h 72% 0.00in /  0mm 109 W/m2
14:14 49.3 °F /  9.6 °C 41.0 °F /  5 °C 29.44in /  996.8hPa West 6.0mph /  9.7km/h 11.0mph /  17.7km/h 73% 0.00in /  0mm 42 W/m2
14:20 46.9 °F /  8.3 °C 40.4 °F /  4.7 °C 29.44in /  996.8hPa West 7.0mph /  11.3km/h 7.0mph /  11.3km/h 78% 0.00in /  0mm 37 W/m2
14:26 47.4 °F /  8.6 °C 41.2 °F /  5.1 °C 29.44in /  996.8hPa SSW 6.0mph /  9.7km/h 7.0mph /  11.3km/h 79% 0.00in /  0mm 417 W/m2
14:32 48.2 °F /  9 °C 41.3 °F /  5.2 °C 29.44in /  996.8hPa WSW 5.0mph /  8km/h 13.0mph /  20.9km/h 77% 0.00in /  0mm 98 W/m2
14:38 47.4 °F /  8.6 °C 39.5 °F /  4.2 °C 29.48in /  998.2hPa West 7.0mph /  11.3km/h 21.0mph /  33.8km/h 74% 0.00in /  0mm 11 W/m2
14:44 42.9 °F /  6.1 °C 36.5 °F /  2.5 °C 29.50in /  998.9hPa West 9.0mph /  14.5km/h 11.0mph /  17.7km/h 78% 0.00in /  0mm 33 W/m2
14:50 41.1 °F /  5.1 °C 36.3 °F /  2.4 °C 29.50in /  998.9hPa NW 7.0mph /  11.3km/h 7.0mph /  11.3km/h 83% 0.00in /  0mm 32 W/m2
14:56 40.6 °F /  4.8 °C 36.7 °F /  2.6 °C 29.50in /  998.9hPa WNW 6.0mph /  9.7km/h 9.0mph /  14.5km/h 86% 0.00in /  0mm 21 W/m2
15:02 40.6 °F /  4.8 °C 37.0 °F /  2.8 °C 29.52in /  999.5hPa WNW 5.0mph /  8km/h 5.0mph /  8km/h 87% 0.00in /  0mm 21 W/m2
15:08 40.5 °F /  4.7 °C 36.9 °F /  2.7 °C 29.52in /  999.5hPa West 4.0mph /  6.4km/h 8.0mph /  12.9km/h 87% 0.00in /  0mm 30 W/m2
15:14 40.4 °F /  4.7 °C 36.8 °F /  2.7 °C 29.52in /  999.5hPa WSW 4.0mph /  6.4km/h 5.0mph /  8km/h 87% 0.00in /  0mm 21 W/m2
15:20 40.4 °F /  4.7 °C 36.8 °F /  2.7 °C 29.53in /  999.9hPa WSW 4.0mph /  6.4km/h 4.0mph /  6.4km/h 87% 0.00in /  0mm 18 W/m2
15:26 40.4 °F /  4.7 °C 36.8 °F /  2.7 °C 29.53in /  999.9hPa West 4.0mph /  6.4km/h 7.0mph /  11.3km/h 87% 0.00in /  0mm 14 W/m2
15:38 40.2 °F /  4.6 °C 36.3 °F /  2.4 °C 29.53in /  999.9hPa WSW 3.0mph /  4.8km/h 4.0mph /  6.4km/h 86% 0.00in /  0mm 21 W/m2
15:44 40.1 °F /  4.5 °C 36.2 °F /  2.3 °C 29.53in /  999.9hPa WSW 3.0mph /  4.8km/h 4.0mph /  6.4km/h 86% 0.00in /  0mm 23 W/m2
15:56 40.0 °F /  4.4 °C 35.9 °F /  2.2 °C 29.53in /  999.9hPa West 3.0mph /  4.8km/h 5.0mph /  8km/h 85% 0.00in /  0mm 77 W/m2
16:02 40.2 °F /  4.6 °C 36.1 °F /  2.3 °C 29.53in /  999.9hPa West 3.0mph /  4.8km/h 6.0mph /  9.7km/h 85% 0.00in /  0mm 91 W/m2
16:08 40.2 °F /  4.6 °C 35.8 °F /  2.1 °C 29.53in /  999.9hPa SSW 3.0mph /  4.8km/h 6.0mph /  9.7km/h 84% 0.00in /  0mm 65 W/m2
16:14 40.1 °F /  4.5 °C 35.4 °F /  1.9 °C 29.54in /  1000.2hPa WSW 3.0mph /  4.8km/h 5.0mph /  8km/h 83% 0.00in /  0mm 35 W/m2
16:20 40.0 °F /  4.4 °C 35.3 °F /  1.8 °C 29.53in /  999.9hPa WSW 3.0mph /  4.8km/h 3.0mph /  4.8km/h 83% 0.00in /  0mm 30 W/m2
16:26 39.9 °F /  4.4 °C 35.2 °F /  1.8 °C 29.54in /  1000.2hPa SW 2.0mph /  3.2km/h 5.0mph /  8km/h 83% 0.00in /  0mm 26 W/m2
16:32 39.8 °F /  4.3 °C 35.1 °F /  1.7 °C 29.55in /  1000.6hPa WSW 3.0mph /  4.8km/h 3.0mph /  4.8km/h 83% 0.00in /  0mm 21 W/m2
16:38 39.8 °F /  4.3 °C 35.1 °F /  1.7 °C 29.55in /  1000.6hPa WSW 3.0mph /  4.8km/h 4.0mph /  6.4km/h 83% 0.00in /  0mm 19 W/m2
16:44 39.8 °F /  4.3 °C 34.8 °F /  1.6 °C 29.55in /  1000.6hPa WSW 3.0mph /  4.8km/h 3.0mph /  4.8km/h 82% 0.00in /  0mm 12 W/m2
16:50 39.7 °F /  4.3 °C 34.7 °F /  1.5 °C 29.55in /  1000.6hPa WSW 2.0mph /  3.2km/h 4.0mph /  6.4km/h 82% 0.00in /  0mm 11 W/m2
16:56 39.6 °F /  4.2 °C 34.6 °F /  1.4 °C 29.55in /  1000.6hPa SW 3.0mph /  4.8km/h 4.0mph /  6.4km/h 82% 0.00in /  0mm 5 W/m2
17:02 39.5 °F /  4.2 °C 34.5 °F /  1.4 °C 29.55in /  1000.6hPa WNW 3.0mph /  4.8km/h 3.0mph /  4.8km/h 82% 0.00in /  0mm 0 W/m2
17:09 39.4 °F /  4.1 °C 34.4 °F /  1.3 °C 29.55in /  1000.6hPa SW 2.0mph /  3.2km/h 3.0mph /  4.8km/h 82% 0.00in /  0mm 0 W/m2
17:14 39.6 °F /  4.2 °C 34.2 °F /  1.2 °C 29.56in /  1000.9hPa WNW 3.0mph /  4.8km/h 3.0mph /  4.8km/h 81% 0.00in /  0mm 0 W/m2
17:20 39.7 °F /  4.3 °C 34.0 °F /  1.1 °C 29.56in /  1000.9hPa WNW 4.0mph /  6.4km/h 5.0mph /  8km/h 80% 0.00in /  0mm 0 W/m2
17:32 39.7 °F /  4.3 °C 33.1 °F /  0.6 °C 29.57in /  1001.2hPa West 4.0mph /  6.4km/h 5.0mph /  8km/h 77% 0.00in /  0mm 0 W/m2
17:38 39.6 °F /  4.2 °C 33.0 °F /  0.6 °C 29.57in /  1001.2hPa WSW 4.0mph /  6.4km/h 7.0mph /  11.3km/h 77% 0.00in /  0mm 0 W/m2
17:44 39.5 °F /  4.2 °C 33.2 °F /  0.7 °C 29.57in /  1001.2hPa SSW 3.0mph /  4.8km/h 4.0mph /  6.4km/h 78% 0.00in /  0mm 0 W/m2
17:56 39.5 °F /  4.2 °C 32.9 °F /  0.5 °C 29.57in /  1001.2hPa SSW 4.0mph /  6.4km/h 8.0mph /  12.9km/h 77% 0.00in /  0mm 0 W/m2
18:02 39.4 °F /  4.1 °C 32.8 °F /  0.4 °C 29.57in /  1001.2hPa WSW 4.0mph /  6.4km/h 4.0mph /  6.4km/h 77% 0.00in /  0mm 0 W/m2
18:08 39.4 °F /  4.1 °C 32.8 °F /  0.4 °C 29.57in /  1001.2hPa SSW 3.0mph /  4.8km/h 6.0mph /  9.7km/h 77% 0.00in /  0mm 0 W/m2
18:14 39.3 °F /  4.1 °C 33.0 °F /  0.6 °C 29.57in /  1001.2hPa SSW 3.0mph /  4.8km/h 6.0mph /  9.7km/h 78% 0.00in /  0mm 0 W/m2
18:20 39.3 °F /  4.1 °C 33.0 °F /  0.6 °C 29.57in /  1001.2hPa WSW 3.0mph /  4.8km/h 4.0mph /  6.4km/h 78% 0.00in /  0mm 0 W/m2
18:32 39.3 °F /  4.1 °C 32.7 °F /  0.4 °C 29.58in /  1001.6hPa West 4.0mph /  6.4km/h 4.0mph /  6.4km/h 77% 0.00in /  0mm 0 W/m2
18:50 39.6 °F /  4.2 °C 32.3 °F /  0.2 °C 29.58in /  1001.6hPa SW 5.0mph /  8km/h 5.0mph /  8km/h 75% 0.00in /  0mm 0 W/m2
19:02 39.6 °F /  4.2 °C 32.3 °F /  0.2 °C 29.58in /  1001.6hPa West 4.0mph /  6.4km/h 4.0mph /  6.4km/h 75% 0.00in /  0mm 0 W/m2
19:08 39.5 °F /  4.2 °C 32.2 °F /  0.1 °C 29.58in /  1001.6hPa SW 3.0mph /  4.8km/h 4.0mph /  6.4km/h 75% 0.00in /  0mm 0 W/m2
19:32 39.5 °F /  4.2 °C 32.2 °F /  0.1 °C 29.58in /  1001.6hPa WSW 3.0mph /  4.8km/h 4.0mph /  6.4km/h 75% 0.00in /  0mm 0 W/m2
19:38 39.4 °F /  4.1 °C 32.1 °F /  0.1 °C 29.58in /  1001.6hPa SW 2.0mph /  3.2km/h 4.0mph /  6.4km/h 75% 0.00in /  0mm 0 W/m2
19:56 39.6 °F /  4.2 °C 32.0 °F /  0 °C 29.59in /  1001.9hPa SSW 4.0mph /  6.4km/h 7.0mph /  11.3km/h 74% 0.00in /  0mm 0 W/m2
20:02 39.8 °F /  4.3 °C 32.2 °F /  0.1 °C 29.59in /  1001.9hPa West 5.0mph /  8km/h 5.0mph /  8km/h 74% 0.00in /  0mm 0 W/m2
20:08 39.7 °F /  4.3 °C 32.1 °F /  0.1 °C 29.59in /  1001.9hPa WSW 4.0mph /  6.4km/h 5.0mph /  8km/h 74% 0.00in /  0mm 0 W/m2
20:14 39.5 °F /  4.2 °C 32.2 °F /  0.1 °C 29.59in /  1001.9hPa West 4.0mph /  6.4km/h 4.0mph /  6.4km/h 75% 0.00in /  0mm 0 W/m2
20:20 39.3 °F /  4.1 °C 32.4 °F /  0.2 °C 29.59in /  1001.9hPa West 3.0mph /  4.8km/h 3.0mph /  4.8km/h 76% 0.00in /  0mm 0 W/m2
20:26 39.1 °F /  3.9 °C 32.5 °F /  0.3 °C 29.59in /  1001.9hPa WSW 4.0mph /  6.4km/h 4.0mph /  6.4km/h 77% 0.00in /  0mm 0 W/m2
20:32 38.8 °F /  3.8 °C 32.5 °F /  0.3 °C 29.59in /  1001.9hPa West 3.0mph /  4.8km/h 7.0mph /  11.3km/h 78% 0.00in /  0mm 0 W/m2
20:44 38.3 °F /  3.5 °C 32.7 °F /  0.4 °C 29.60in /  1002.3hPa SW 4.0mph /  6.4km/h 8.0mph /  12.9km/h 80% 0.00in /  0mm 0 W/m2
20:50 38.2 °F /  3.4 °C 32.9 °F /  0.5 °C 29.60in /  1002.3hPa SW 5.0mph /  8km/h 5.0mph /  8km/h 81% 0.00in /  0mm 0 W/m2
20:56 38.0 °F /  3.3 °C 32.7 °F /  0.4 °C 29.59in /  1001.9hPa WSW 4.0mph /  6.4km/h 13.0mph /  20.9km/h 81% 0.00in /  0mm 0 W/m2
21:02 38.1 °F /  3.4 °C 32.8 °F /  0.4 °C 29.59in /  1001.9hPa SW 5.0mph /  8km/h 9.0mph /  14.5km/h 81% 0.00in /  0mm 0 W/m2
21:14 37.9 °F /  3.3 °C 32.9 °F /  0.5 °C 29.60in /  1002.3hPa WSW 4.0mph /  6.4km/h 6.0mph /  9.7km/h 82% 0.00in /  0mm 0 W/m2
21:20 37.8 °F /  3.2 °C 32.8 °F /  0.4 °C 29.60in /  1002.3hPa SW 5.0mph /  8km/h 5.0mph /  8km/h 82% 0.00in /  0mm 0 W/m2
21:26 37.7 °F /  3.2 °C 33.0 °F /  0.6 °C 29.60in /  1002.3hPa WSW 5.0mph /  8km/h 6.0mph /  9.7km/h 83% 0.00in /  0mm 0 W/m2
21:32 37.5 °F /  3.1 °C 32.8 °F /  0.4 °C 29.60in /  1002.3hPa WSW 4.0mph /  6.4km/h 7.0mph /  11.3km/h 83% 0.00in /  0mm 0 W/m2
21:38 37.7 °F /  3.2 °C 33.0 °F /  0.6 °C 29.60in /  1002.3hPa WSW 5.0mph /  8km/h 7.0mph /  11.3km/h 83% 0.00in /  0mm 0 W/m2
21:50 37.7 °F /  3.2 °C 32.7 °F /  0.4 °C 29.60in /  1002.3hPa WSW 7.0mph /  11.3km/h 7.0mph /  11.3km/h 82% 0.00in /  0mm 0 W/m2
21:56 37.4 °F /  3 °C 32.4 °F /  0.2 °C 29.60in /  1002.3hPa WSW 5.0mph /  8km/h 7.0mph /  11.3km/h 82% 0.00in /  0mm 0 W/m2
22:02 37.4 °F /  3 °C 32.4 °F /  0.2 °C 29.60in /  1002.3hPa WNW 6.0mph /  9.7km/h 13.0mph /  20.9km/h 82% 0.00in /  0mm 0 W/m2
22:08 37.5 °F /  3.1 °C 32.2 °F /  0.1 °C 29.61in /  1002.6hPa SW 7.0mph /  11.3km/h 13.0mph /  20.9km/h 81% 0.00in /  0mm 0 W/m2
22:14 37.6 °F /  3.1 °C 32.0 °F /  0 °C 29.61in /  1002.6hPa SSW 6.0mph /  9.7km/h 7.0mph /  11.3km/h 80% 0.00in /  0mm 0 W/m2
22:20 37.6 °F /  3.1 °C 31.7 °F /  -0.2 °C 29.61in /  1002.6hPa WSW 6.0mph /  9.7km/h 10.0mph /  16.1km/h 79% 0.00in /  0mm 0 W/m2
22:26 37.6 °F /  3.1 °C 31.4 °F /  -0.3 °C 29.61in /  1002.6hPa SW 7.0mph /  11.3km/h 15.0mph /  24.1km/h 78% 0.00in /  0mm 0 W/m2
22:32 37.5 °F /  3.1 °C 31.3 °F /  -0.4 °C 29.61in /  1002.6hPa West 7.0mph /  11.3km/h 9.0mph /  14.5km/h 78% 0.00in /  0mm 0 W/m2
22:38 37.4 °F /  3 °C 31.2 °F /  -0.4 °C 29.61in /  1002.6hPa West 6.0mph /  9.7km/h 9.0mph /  14.5km/h 78% 0.00in /  0mm 0 W/m2
22:50 37.3 °F /  2.9 °C 31.1 °F /  -0.5 °C 29.62in /  1002.9hPa WNW 6.0mph /  9.7km/h 8.0mph /  12.9km/h 78% 0.00in /  0mm 0 W/m2
22:56 37.2 °F /  2.9 °C 31.0 °F /  -0.6 °C 29.63in /  1003.3hPa West 6.0mph /  9.7km/h 8.0mph /  12.9km/h 78% 0.00in /  0mm 0 W/m2
23:02 37.1 °F /  2.8 °C 30.9 °F /  -0.6 °C 29.63in /  1003.3hPa West 5.0mph /  8km/h 13.0mph /  20.9km/h 78% 0.00in /  0mm 0 W/m2
23:08 37.1 °F /  2.8 °C 30.9 °F /  -0.6 °C 29.63in /  1003.3hPa WSW 6.0mph /  9.7km/h 13.0mph /  20.9km/h 78% 0.00in /  0mm 0 W/m2
23:14 37.1 °F /  2.8 °C 30.9 °F /  -0.6 °C 29.63in /  1003.3hPa WNW 6.0mph /  9.7km/h 8.0mph /  12.9km/h 78% 0.00in /  0mm 0 W/m2
23:20 36.9 °F /  2.7 °C 30.7 °F /  -0.7 °C 29.64in /  1003.6hPa WSW 5.0mph /  8km/h 7.0mph /  11.3km/h 78% 0.00in /  0mm 0 W/m2
23:26 34.6 °F /  1.4 °C 29.4 °F /  -1.4 °C 29.65in /  1003.9hPa NW 7.0mph /  11.3km/h 8.0mph /  12.9km/h 81% 0.00in /  0mm 0 W/m2
23:32 33.2 °F /  0.7 °C 29.2 °F /  -1.6 °C 29.66in /  1004.3hPa West 7.0mph /  11.3km/h 7.0mph /  11.3km/h 85% 0.00in /  0mm 0 W/m2
23:38 32.7 °F /  0.4 °C 29.3 °F /  -1.5 °C 29.66in /  1004.3hPa WNW 6.0mph /  9.7km/h 12.0mph /  19.3km/h 87% 0.00in /  0mm 0 W/m2
23:44 32.5 °F /  0.3 °C 29.3 °F /  -1.5 °C 29.66in /  1004.3hPa West 7.0mph /  11.3km/h 12.0mph /  19.3km/h 88% 0.00in /  0mm 0 W/m2
23:50 32.4 °F /  0.2 °C 29.5 °F /  -1.4 °C 29.67in /  1004.6hPa West 7.0mph /  11.3km/h 7.0mph /  11.3km/h 89% 0.00in /  0mm 0 W/m2
Country Meadow, Clay, NY, USA
Compliments of Weather Underground - 2 mb